Time;durP1;ratioP1;P1;durP2;ratioP2;P2;SDS_P1;SDS_P2;PMS_P1;PMS_P2;Temp;Humidity;BMP_temperature;BMP_pressure;BME280_temperature;BME280_humidity;BME280_pressure;Samples;Min_cycle;Max_cycle;Signal;HPM_P1;HPM_P2
2021/07/25 00:01:27;;;;;;;19.45;12.50;;;;;;;20.25;66.63;100547.42;1694785;81;26441;-80
2021/07/25 00:03:54;;;;;;;18.48;13.48;;;;;;;20.23;66.63;100548.21;1704461;81;25930;-81
2021/07/25 00:06:21;;;;;;;14.95;13.03;;;;;;;20.21;66.68;100553.08;1730326;82;28270;-80
2021/07/25 00:08:48;;;;;;;16.02;13.32;;;;;;;20.20;66.73;100549.53;1679544;82;25992;-79
2021/07/25 00:11:17;;;;;;;16.70;12.70;;;;;;;20.19;66.76;100549.76;1715202;82;26001;-80
2021/07/25 00:13:47;;;;;;;15.85;12.33;;;;;;;20.18;66.80;100549.45;1734473;82;25896;-80
2021/07/25 00:16:13;;;;;;;15.88;13.13;;;;;;;20.13;66.83;100546.13;1732920;82;25975;-79
2021/07/25 00:18:40;;;;;;;21.07;13.13;;;;;;;20.12;66.97;100546.38;1691553;82;27504;-80
2021/07/25 00:21:07;;;;;;;18.50;14.00;;;;;;;20.09;67.10;100540.08;1684017;82;25928;-80
2021/07/25 00:23:35;;;;;;;18.12;13.08;;;;;;;20.05;67.09;100538.93;1712222;82;26605;-79
2021/07/25 00:26:03;;;;;;;16.42;13.83;;;;;;;19.98;67.28;100533.13;1733161;82;26511;-79
2021/07/25 00:28:33;;;;;;;18.82;13.08;;;;;;;19.94;67.34;100531.16;1665920;82;25827;-79
2021/07/25 00:31:05;;;;;;;20.20;14.73;;;;;;;19.91;67.46;100519.41;1686305;82;27569;-80
2021/07/25 00:33:33;;;;;;;18.42;14.93;;;;;;;19.86;67.47;100526.98;1713850;82;26168;-79
2021/07/25 00:36:03;;;;;;;18.92;14.47;;;;;;;19.84;67.66;100526.41;1736629;82;25795;-80
2021/07/25 00:38:30;;;;;;;16.52;13.75;;;;;;;19.83;67.62;100517.95;1687232;82;25838;-80
2021/07/25 00:41:08;;;;;;;19.30;14.07;;;;;;;19.82;67.77;100520.38;1687653;82;26019;-79
2021/07/25 00:43:35;;;;;;;22.25;14.58;;;;;;;19.77;67.77;100518.13;1705369;82;27625;-80
2021/07/25 00:46:03;;;;;;;19.45;14.40;;;;;;;19.74;67.85;100511.29;1722432;82;25797;-79
2021/07/25 00:48:31;;;;;;;17.05;14.05;;;;;;;19.74;67.96;100516.72;1684204;82;26483;-79
2021/07/25 00:50:59;;;;;;;21.82;14.25;;;;;;;19.74;68.00;100519.97;1734168;82;26018;-80
2021/07/25 00:53:27;;;;;;;22.52;15.13;;;;;;;19.70;68.07;100525.09;1729736;81;25918;-79
2021/07/25 00:55:55;;;;;;;19.70;14.00;;;;;;;19.68;68.14;100511.45;1700158;81;28295;-80
2021/07/25 00:58:22;;;;;;;19.77;15.00;;;;;;;19.68;68.20;100510.92;1723566;81;25818;-80
2021/07/25 01:00:49;;;;;;;17.48;13.75;;;;;;;19.71;68.26;100513.69;1682055;81;26552;-80
2021/07/25 01:03:42;;;;;;;18.82;14.05;;;;;;;19.65;68.19;100510.05;1699228;80;25805;-80
2021/07/25 01:06:27;;;;;;;21.05;14.70;;;;;;;19.58;68.24;100515.37;1687810;81;25840;-80
2021/07/25 01:09:02;;;;;;;18.77;14.95;;;;;;;19.56;68.47;100512.92;1747359;80;27470;-79
2021/07/25 01:11:40;;;;;;;19.98;13.55;;;;;;;19.50;68.52;100509.01;1730008;80;26141;-79
2021/07/25 01:14:08;;;;;;;18.50;13.85;;;;;;;19.47;68.54;100509.48;1722765;81;26579;-80
2021/07/25 01:16:35;;;;;;;18.98;14.03;;;;;;;19.44;68.69;100510.80;1735881;82;25774;-79
2021/07/25 01:19:02;;;;;;;19.02;13.98;;;;;;;19.41;68.79;100511.84;1731729;82;26472;-79
2021/07/25 01:21:29;;;;;;;18.75;14.60;;;;;;;19.38;68.85;100506.89;1680707;82;27635;-80
2021/07/25 01:23:58;;;;;;;21.27;14.90;;;;;;;19.32;68.94;100507.31;1715365;82;25919;-80
2021/07/25 01:26:28;;;;;;;18.90;13.95;;;;;;;19.28;69.10;100510.77;1738646;82;25970;-79
2021/07/25 01:28:59;;;;;;;16.57;13.80;;;;;;;19.25;69.24;100516.14;1691989;82;25885;-79
2021/07/25 01:31:34;;;;;;;17.25;13.88;;;;;;;19.21;69.27;100513.11;1709013;82;25842;-79
2021/07/25 01:34:02;;;;;;;20.82;15.83;;;;;;;19.20;69.01;100503.86;1702661;82;27585;-79
2021/07/25 01:36:30;;;;;;;19.67;13.78;;;;;;;19.17;69.45;100505.69;1733424;82;26238;-78
2021/07/25 01:38:57;;;;;;;19.02;15.08;;;;;;;19.15;69.50;100506.47;1693654;80;25829;-80
2021/07/25 01:41:24;;;;;;;18.37;14.18;;;;;;;19.15;69.59;100505.12;1705125;80;25827;-80
2021/07/25 01:43:52;;;;;;;18.87;14.58;;;;;;;19.17;69.60;100505.69;1695099;81;25945;-79
2021/07/25 01:46:19;;;;;;;18.87;15.08;;;;;;;19.15;69.71;100507.30;1750189;80;27529;-78
2021/07/25 01:48:46;;;;;;;19.92;14.60;;;;;;;19.14;69.78;100506.17;1713536;81;26456;-80
2021/07/25 01:51:15;;;;;;;21.30;14.18;;;;;;;19.10;69.75;100501.77;1686285;81;26558;-78
2021/07/25 01:53:42;;;;;;;19.65;14.40;;;;;;;19.05;69.90;100496.24;1705197;81;26432;-78
2021/07/25 01:56:09;;;;;;;18.15;14.18;;;;;;;19.03;69.99;100492.95;1732176;81;25785;-81
2021/07/25 01:58:36;;;;;;;17.92;13.95;;;;;;;18.99;70.04;100497.78;1665235;80;27264;-79
2021/07/25 02:01:03;;;;;;;21.00;15.53;;;;;;;18.93;70.14;100494.13;1699582;81;25870;-79
2021/07/25 02:03:31;;;;;;;19.75;15.13;;;;;;;18.89;70.34;100491.62;1710173;82;25793;-79
2021/07/25 02:05:58;;;;;;;20.17;15.13;;;;;;;18.81;70.30;100492.02;1735774;82;25912;-79
2021/07/25 02:08:25;;;;;;;24.63;15.43;;;;;;;18.78;70.57;100487.06;1668156;82;25880;-79
2021/07/25 02:10:53;;;;;;;20.00;14.90;;;;;;;18.75;70.67;100484.85;1685154;82;28267;-80
2021/07/25 02:13:22;;;;;;;23.20;15.35;;;;;;;18.72;70.77;100487.20;1706422;82;25807;-79
2021/07/25 02:15:50;;;;;;;22.10;15.30;;;;;;;18.70;70.94;100482.56;1730590;82;26581;-80
2021/07/25 02:18:17;;;;;;;19.60;15.63;;;;;;;18.65;71.04;100481.92;1682144;82;25865;-80
2021/07/25 02:20:45;;;;;;;22.77;15.00;;;;;;;18.65;71.15;100476.50;1682458;82;25903;-80
2021/07/25 02:23:12;;;;;;;19.77;15.60;;;;;;;18.61;71.07;100475.86;1712050;82;27034;-79
2021/07/25 02:25:39;;;;;;;21.10;15.53;;;;;;;18.60;71.28;100472.35;1684582;82;26601;-80
2021/07/25 02:28:09;;;;;;;19.02;14.87;;;;;;;18.58;71.34;100469.06;1666460;82;25825;-80
2021/07/25 02:30:37;;;;;;;21.25;14.85;;;;;;;18.59;71.44;100472.05;1690312;82;26439;-79
2021/07/25 02:33:05;;;;;;;24.72;15.75;;;;;;;18.52;71.47;100468.64;1708350;82;26575;-79
2021/07/25 02:35:33;;;;;;;20.40;14.75;;;;;;;18.52;71.61;100468.64;1713335;82;28159;-79
2021/07/25 02:38:00;;;;;;;19.82;15.63;;;;;;;18.52;71.68;100471.36;1668617;82;25922;-79
2021/07/25 02:40:28;;;;;;;21.35;14.90;;;;;;;18.48;71.72;100469.39;1682284;82;25982;-79
2021/07/25 02:42:55;;;;;;;20.00;15.08;;;;;;;18.44;71.82;100473.93;1684269;82;26526;-79
2021/07/25 02:45:22;;;;;;;19.95;15.03;;;;;;;18.42;71.94;100475.20;1733439;82;25336;-80
2021/07/25 02:47:49;;;;;;;18.55;15.25;;;;;;;18.45;71.99;100472.05;1659182;82;27364;-80
2021/07/25 02:50:16;;;;;;;19.32;14.65;;;;;;;18.46;72.07;100470.97;1704377;82;25846;-80
2021/07/25 02:52:44;;;;;;;22.25;15.85;;;;;;;18.45;72.01;100476.12;1696338;83;25920;-78
2021/07/25 02:55:12;;;;;;;18.25;14.60;;;;;;;18.43;72.06;100477.66;1727377;82;26449;-80
2021/07/25 02:57:39;;;;;;;20.20;15.58;;;;;;;18.43;72.16;100478.22;1684107;82;26515;-80
2021/07/25 03:00:08;;;;;;;19.57;15.23;;;;;;;18.37;72.12;100475.09;1712913;82;28068;-79
2021/07/25 03:02:37;;;;;;;20.92;15.35;;;;;;;18.34;72.22;100480.48;1711726;82;25992;-80
2021/07/25 03:05:05;;;;;;;19.35;15.35;;;;;;;18.31;72.41;100480.13;1736728;82;25869;-78
2021/07/25 03:07:32;;;;;;;20.15;15.58;;;;;;;18.27;72.42;100482.50;1667353;82;25948;-79
2021/07/25 03:09:59;;;;;;;24.50;17.07;;;;;;;18.26;72.54;100478.13;1683288;82;26628;-80
2021/07/25 03:12:26;;;;;;;18.07;15.28;;;;;;;18.24;72.63;100479.45;1708880;82;28155;-79
2021/07/25 03:14:53;;;;;;;23.45;14.13;;;;;;;18.22;72.69;100482.38;1711848;82;26575;-79
2021/07/25 03:17:20;;;;;;;20.70;15.63;;;;;;;18.21;72.79;100480.75;1682781;82;26712;-79
2021/07/25 03:19:48;;;;;;;22.87;15.93;;;;;;;18.20;72.85;100480.97;1690897;82;25905;-79
2021/07/25 03:22:15;;;;;;;26.62;15.05;;;;;;;18.16;72.86;100484.70;1701027;82;25346;-79
2021/07/25 03:24:43;;;;;;;20.43;14.95;;;;;;;18.16;73.06;100482.52;1736708;82;27460;-78
2021/07/25 03:27:10;;;;;;;20.12;15.28;;;;;;;18.16;73.10;100483.86;1691917;83;26066;-79
2021/07/25 03:29:37;;;;;;;21.37;15.45;;;;;;;18.15;73.20;100483.06;1672940;83;25846;-79
2021/07/25 03:32:05;;;;;;;21.40;15.23;;;;;;;18.18;73.20;100487.16;1704446;82;26484;-79
2021/07/25 03:34:33;;;;;;;17.82;15.13;;;;;;;18.21;73.27;100486.17;1733987;82;26141;-80
2021/07/25 03:37:01;;;;;;;19.55;15.30;;;;;;;18.23;73.31;100485.40;1684239;82;28807;-80
2021/07/25 03:39:29;;;;;;;21.05;15.23;;;;;;;18.25;73.34;100489.22;1714281;82;26533;-80
2021/07/25 03:41:56;;;;;;;18.98;15.55;;;;;;;18.28;73.39;100492.82;1703478;82;25844;-79
2021/07/25 03:44:23;;;;;;;18.17;14.80;;;;;;;18.30;73.36;100494.76;1732951;82;26598;-80
2021/07/25 03:46:50;;;;;;;21.80;15.50;;;;;;;18.32;73.37;100498.05;1684322;82;25896;-80
2021/07/25 03:49:18;;;;;;;18.95;15.10;;;;;;;18.29;73.45;100502.06;1686061;82;27468;-79
2021/07/25 03:51:45;;;;;;;19.52;15.60;;;;;;;18.27;73.43;100506.91;1701935;82;25789;-79
2021/07/25 03:54:13;;;;;;;19.85;15.45;;;;;;;18.30;73.59;100505.61;1714795;82;25853;-79
2021/07/25 03:56:40;;;;;;;18.82;15.20;;;;;;;18.34;73.69;100504.89;1684742;82;26588;-78
2021/07/25 03:59:07;;;;;;;18.45;15.05;;;;;;;18.37;73.74;100510.34;1707516;82;26533;-79
2021/07/25 04:01:34;;;;;;;21.10;15.50;;;;;;;18.39;73.72;100508.24;1714890;82;28274;-79
2021/07/25 04:04:02;;;;;;;21.10;15.78;;;;;;;18.39;73.81;100507.69;1736746;82;25883;-79
2021/07/25 04:06:30;;;;;;;20.85;15.75;;;;;;;18.40;73.82;100516.13;1669915;82;25944;-80
2021/07/25 04:08:58;;;;;;;20.65;15.35;;;;;;;18.42;73.93;100518.59;1692142;82;25872;-79
2021/07/25 04:11:25;;;;;;;21.02;14.93;;;;;;;18.41;73.99;100516.41;1711103;82;25748;-80
2021/07/25 04:13:52;;;;;;;21.82;15.63;;;;;;;18.44;73.98;100517.33;1736627;82;28257;-79
2021/07/25 04:16:19;;;;;;;19.52;14.55;;;;;;;18.44;73.94;100512.43;1668126;82;25366;-79
2021/07/25 04:18:46;;;;;;;16.93;14.55;;;;;;;18.46;74.05;100515.72;1687839;82;25852;-80
2021/07/25 04:21:13;;;;;;;21.45;15.70;;;;;;;18.48;74.14;100519.02;1712088;82;26507;-79
2021/07/25 04:23:42;;;;;;;19.23;15.53;;;;;;;18.48;74.40;100513.07;1713263;82;25835;-79
2021/07/25 04:26:10;;;;;;;18.12;14.55;;;;;;;18.48;74.42;100514.42;1707726;82;27589;-79
2021/07/25 04:28:38;;;;;;;19.48;15.55;;;;;;;18.50;74.55;100518.80;1677016;83;25966;-80
2021/07/25 04:31:06;;;;;;;20.88;15.83;;;;;;;18.55;74.86;100510.74;1738052;82;25724;-79
2021/07/25 04:33:34;;;;;;;19.60;14.58;;;;;;;18.62;74.82;100511.44;1673124;82;26493;-80
2021/07/25 04:36:10;;;;;;;20.00;15.08;;;;;;;18.66;74.79;100508.53;1671219;82;25903;-78
2021/07/25 04:38:31;;;;;;;17.07;14.83;;;;;;;18.67;74.69;100504.77;1694773;82;27412;-79
2021/07/25 04:41:01;;;;;;;19.98;15.83;;;;;;;18.72;74.96;100511.63;1735250;82;25284;-79
2021/07/25 04:43:33;;;;;;;20.17;14.75;;;;;;;18.76;75.09;100506.84;1712013;82;25925;-79
2021/07/25 04:46:23;;;;;;;17.90;14.35;;;;;;;18.83;75.20;100503.98;1715812;82;25868;-79
2021/07/25 04:48:59;;;;;;;21.40;16.02;;;;;;;18.89;75.15;100510.62;1689856;82;26589;-80
2021/07/25 04:51:31;;;;;;;18.23;14.80;;;;;;;18.94;75.12;100513.44;1735732;82;27471;-79
2021/07/25 04:54:03;;;;;;;18.20;15.00;;;;;;;19.02;75.29;100514.39;1681428;82;25836;-79
2021/07/25 04:56:38;;;;;;;20.75;13.72;;;;;;;19.11;75.32;100515.66;1737494;82;25752;-79
2021/07/25 04:59:13;;;;;;;19.48;14.63;;;;;;;19.22;75.46;100513.94;1679271;82;25375;-80
2021/07/25 05:01:43;;;;;;;21.70;16.35;;;;;;;19.35;75.59;100515.55;1735992;82;25792;-79
2021/07/25 05:04:11;;;;;;;21.00;15.32;;;;;;;19.45;75.49;100523.86;1688450;82;28084;-79
2021/07/25 05:06:38;;;;;;;21.75;15.78;;;;;;;19.54;75.06;100515.59;1717870;82;25907;-80
2021/07/25 05:09:06;;;;;;;17.45;14.03;;;;;;;19.66;75.08;100510.88;1689116;82;25977;-80
2021/07/25 05:11:44;;;;;;;16.42;13.68;;;;;;;19.75;75.16;100511.59;1720548;82;26711;-79
2021/07/25 05:14:28;;;;;;;17.62;14.15;;;;;;;19.85;75.14;100511.73;1714821;82;25890;-78
2021/07/25 05:17:12;;;;;;;20.62;15.18;;;;;;;19.96;75.33;100512.17;1729845;82;27478;-79
2021/07/25 05:19:54;;;;;;;19.70;14.43;;;;;;;20.07;75.12;100509.06;1705260;82;26452;-78
2021/07/25 05:22:55;;;;;;;16.00;14.20;;;;;;;20.18;75.17;100510.02;1726712;81;26383;-80
2021/07/25 05:25:23;;;;;;;20.88;14.65;;;;;;;20.30;74.73;100507.49;1700967;83;25829;-79
2021/07/25 05:27:53;;;;;;;19.37;13.43;;;;;;;20.44;74.45;100506.06;1679041;81;25889;-79
2021/07/25 05:30:23;;;;;;;17.48;14.18;;;;;;;20.58;73.81;100505.12;1692171;81;28054;-79
2021/07/25 05:32:51;;;;;;;17.32;14.65;;;;;;;20.70;73.36;100507.98;1720259;81;26566;-79
2021/07/25 05:35:19;;;;;;;21.07;15.45;;;;;;;20.83;73.19;100510.84;1705668;81;25939;-79
2021/07/25 05:37:46;;;;;;;21.60;15.72;;;;;;;20.97;72.50;100512.63;1682899;82;26426;-79
2021/07/25 05:40:15;;;;;;;20.72;15.10;;;;;;;21.05;71.68;100507.58;1674013;82;25830;-78
2021/07/25 05:42:43;;;;;;;19.15;14.50;;;;;;;21.15;71.36;100509.03;1723278;82;27509;-78
2021/07/25 05:45:12;;;;;;;18.65;14.53;;;;;;;21.23;70.71;100507.75;1691489;82;25779;-79
2021/07/25 05:47:39;;;;;;;18.60;14.63;;;;;;;21.32;71.14;100510.30;1713817;82;25752;-79
2021/07/25 05:50:09;;;;;;;17.05;14.53;;;;;;;21.40;70.51;100506.55;1679641;82;25913;-79
2021/07/25 05:52:46;;;;;;;21.65;14.47;;;;;;;21.53;70.92;100515.36;1732185;82;26537;-79
2021/07/25 05:55:13;;;;;;;18.10;14.50;;;;;;;21.65;70.80;100514.63;1707374;82;28330;-78
2021/07/25 05:57:40;;;;;;;18.75;14.58;;;;;;;21.76;70.65;100514.99;1714405;82;25325;-78
2021/07/25 06:00:08;;;;;;;20.88;16.95;;;;;;;21.87;70.12;100520.30;1693276;82;25945;-79
2021/07/25 06:02:58;;;;;;;23.53;19.27;;;;;;;21.98;69.81;100508.34;1730698;82;25936;-79
2021/07/25 06:05:28;;;;;;;17.85;15.68;;;;;;;22.08;70.01;100510.33;1737060;82;26132;-78
2021/07/25 06:07:58;;;;;;;17.10;14.05;;;;;;;22.21;70.17;100516.68;1717846;82;28467;-78
2021/07/25 06:10:28;;;;;;;17.55;13.50;;;;;;;22.30;68.90;100511.00;1689317;82;25871;-78
2021/07/25 06:12:56;;;;;;;16.40;14.20;;;;;;;22.37;68.44;100499.84;1731151;82;25814;-79
2021/07/25 06:15:26;;;;;;;18.02;13.40;;;;;;;22.44;68.42;100499.86;1655748;82;26645;-78
2021/07/25 06:17:53;;;;;;;15.08;12.95;;;;;;;22.51;67.92;100510.00;1683995;82;25904;-78
2021/07/25 06:20:20;;;;;;;16.20;12.98;;;;;;;22.54;67.74;100505.92;1674797;82;28223;-78
2021/07/25 06:22:53;;;;;;;16.37;13.53;;;;;;;22.60;68.04;100507.07;1702230;82;26528;-78
2021/07/25 06:25:30;;;;;;;17.05;12.43;;;;;;;22.66;67.75;100501.89;1702401;82;25847;-79
2021/07/25 06:28:00;;;;;;;22.30;13.25;;;;;;;22.75;67.32;100504.92;1701934;82;26485;-78
2021/07/25 06:30:28;;;;;;;14.90;12.58;;;;;;;22.81;66.75;100509.31;1682097;82;26607;-79
2021/07/25 06:33:07;;;;;;;17.20;12.18;;;;;;;22.88;67.14;100510.68;1729649;82;28220;-78
2021/07/25 06:35:41;;;;;;;14.20;11.68;;;;;;;22.96;67.17;100507.98;1709011;82;26187;-78
2021/07/25 06:38:12;;;;;;;13.80;12.07;;;;;;;23.05;66.64;100511.00;1709634;82;26413;-78
2021/07/25 06:40:43;;;;;;;14.05;12.55;;;;;;;23.12;66.56;100499.27;1712438;82;26387;-79
2021/07/25 06:43:10;;;;;;;;;;;;;;;23.21;66.43;100500.36;1733168;82;25858;-79
2021/07/25 06:45:37;;;;;;;15.20;12.20;;;;;;;23.32;66.83;100504.20;1673566;82;27698;-79
2021/07/25 06:48:04;;;;;;;18.17;13.15;;;;;;;23.40;66.01;100503.68;1684406;82;25982;-78
2021/07/25 06:50:32;;;;;;;14.98;12.47;;;;;;;23.48;65.86;100505.06;1737614;82;25493;-79
2021/07/25 06:53:00;;;;;;;15.95;12.63;;;;;;;23.58;65.74;100504.52;1704367;81;25953;-78
2021/07/25 06:55:29;;;;;;;17.07;13.65;;;;;;;23.68;65.26;100507.23;1657204;82;26001;-79
2021/07/25 06:57:57;;;;;;;16.25;12.90;;;;;;;23.81;65.35;100511.86;1684732;82;27701;-79
2021/07/25 07:00:26;;;;;;;13.68;11.60;;;;;;;23.91;64.84;100511.30;1725236;81;25973;-78
2021/07/25 07:02:57;;;;;;;14.10;12.10;;;;;;;24.02;65.09;100514.83;1739615;81;25937;-78
2021/07/25 07:05:28;;;;;;;15.98;12.05;;;;;;;24.12;65.13;100508.02;1676787;82;25996;-79
2021/07/25 07:07:58;;;;;;;16.97;12.50;;;;;;;24.20;64.96;100515.11;1667025;81;25888;-79
2021/07/25 07:10:29;;;;;;;13.00;10.68;;;;;;;24.29;64.94;100516.72;1734030;82;27447;-78
2021/07/25 07:12:57;;;;;;;;;;;;;;;24.36;64.48;100510.38;1736368;82;26507;-78
2021/07/25 07:15:26;;;;;;;13.60;11.35;;;;;;;24.44;64.41;100509.25;1734560;82;26456;-79
2021/07/25 07:17:56;;;;;;;13.32;10.60;;;;;;;24.53;64.22;100514.17;1690986;82;26424;-78
2021/07/25 07:20:24;;;;;;;17.92;12.18;;;;;;;24.61;63.99;100514.41;1732727;81;25787;-79
2021/07/25 07:22:59;;;;;;;15.93;11.53;;;;;;;24.68;63.76;100506.68;1688435;82;27481;-78
2021/07/25 07:25:31;;;;;;;15.28;11.48;;;;;;;24.79;63.07;100506.11;1732067;82;26723;-79
2021/07/25 07:27:58;;;;;;;17.05;11.65;;;;;;;24.84;63.10;100513.77;1687694;82;25817;-78
2021/07/25 07:30:25;;;;;;;16.32;11.80;;;;;;;24.89;63.12;100508.23;1733944;81;25876;-78
2021/07/25 07:32:52;;;;;;;17.65;11.35;;;;;;;24.94;62.90;100505.47;1684722;82;25866;-78
2021/07/25 07:35:25;;;;;;;14.68;11.97;;;;;;;25.00;62.45;100506.28;1690457;82;27561;-78
2021/07/25 07:37:52;;;;;;;17.10;11.57;;;;;;;25.01;62.03;100502.42;1690718;82;26064;-78
2021/07/25 07:40:19;;;;;;;14.38;11.53;;;;;;;25.02;61.92;100500.76;1714804;82;26497;-79
2021/07/25 07:42:46;;;;;;;17.15;11.55;;;;;;;25.08;62.16;100501.02;1676925;82;26773;-78
2021/07/25 07:45:15;;;;;;;15.05;10.98;;;;;;;25.13;61.69;100505.63;1695981;82;25854;-78
2021/07/25 07:47:42;;;;;;;15.05;12.33;;;;;;;25.19;62.04;100506.67;1685177;82;27481;-78
2021/07/25 07:50:10;;;;;;;13.18;11.53;;;;;;;25.28;61.75;100505.52;1712520;82;25892;-78
2021/07/25 07:52:37;;;;;;;12.93;10.68;;;;;;;25.35;61.35;100507.39;1688885;82;26665;-79
2021/07/25 07:55:07;;;;;;;14.25;11.28;;;;;;;25.38;61.71;100509.56;1680982;82;26528;-79
2021/07/25 07:57:34;;;;;;;13.65;10.75;;;;;;;25.42;61.03;100509.84;1714991;82;25809;-79
2021/07/25 08:00:01;;;;;;;14.47;11.50;;;;;;;25.48;60.92;100510.88;1685572;81;28347;-78
2021/07/25 08:02:29;;;;;;;12.00;10.50;;;;;;;25.55;61.54;100507.27;1674410;82;25901;-79
2021/07/25 08:04:57;;;;;;;17.10;11.25;;;;;;;25.63;61.97;100505.81;1715169;82;25748;-79
2021/07/25 08:07:25;;;;;;;12.85;10.10;;;;;;;25.71;61.40;100503.27;1734367;82;26564;-78
2021/07/25 08:09:52;;;;;;;12.45;10.05;;;;;;;25.80;61.15;100502.91;1662979;82;26632;-78
2021/07/25 08:12:19;;;;;;;10.60;9.10;;;;;;;25.87;59.94;100499.83;1679388;82;27484;-79
2021/07/25 08:14:47;;;;;;;11.78;10.58;;;;;;;25.93;59.61;100505.52;1714104;81;26593;-79
2021/07/25 08:17:14;;;;;;;15.83;10.72;;;;;;;25.97;59.69;100512.06;1716193;80;25867;-79
2021/07/25 08:19:41;;;;;;;11.78;9.50;;;;;;;26.05;59.57;100515.54;1698981;80;26604;-79
2021/07/25 08:22:08;;;;;;;10.15;9.00;;;;;;;26.08;59.66;100512.77;1709466;82;25868;-78
2021/07/25 08:24:38;;;;;;;13.83;9.93;;;;;;;26.11;59.47;100500.67;1722470;80;28242;-78
2021/07/25 08:27:06;;;;;;;12.13;10.20;;;;;;;26.17;59.25;100508.32;1761283;80;25905;-78
2021/07/25 08:29:33;;;;;;;13.48;10.35;;;;;;;26.22;58.97;100511.02;1664359;81;25893;-78
2021/07/25 08:32:00;;;;;;;13.03;9.88;;;;;;;26.31;59.19;100499.09;1702881;81;25907;-78
2021/07/25 08:34:27;;;;;;;13.28;9.68;;;;;;;26.41;58.13;100499.53;1724667;80;25845;-78
2021/07/25 08:36:55;;;;;;;12.98;10.68;;;;;;;26.45;58.52;100504.12;1739682;81;27425;-78
2021/07/25 08:39:22;;;;;;;10.72;9.63;;;;;;;26.53;58.98;100506.23;1680745;81;25614;-78
2021/07/25 08:42:11;;;;;;;10.95;9.73;;;;;;;26.62;59.01;100498.16;1697705;80;25845;-78
2021/07/25 08:44:52;;;;;;;11.93;9.78;;;;;;;26.73;58.83;100501.06;1704685;81;26710;-78
2021/07/25 08:47:35;;;;;;;13.72;9.88;;;;;;;26.79;58.11;100497.13;1728636;81;26592;-78
2021/07/25 08:50:13;;;;;;;12.47;9.58;;;;;;;26.87;58.09;100498.38;1693846;81;28052;-77
2021/07/25 08:52:46;;;;;;;14.43;9.60;;;;;;;26.97;58.13;100510.59;1753791;80;25825;-78
2021/07/25 08:55:16;;;;;;;13.30;9.65;;;;;;;26.99;57.10;100502.32;1715214;80;25778;-77
2021/07/25 08:57:48;;;;;;;11.50;9.40;;;;;;;27.04;57.96;100504.18;1726998;82;25862;-78
2021/07/25 09:00:21;;;;;;;16.23;10.13;;;;;;;27.08;57.65;100506.05;1685015;82;26614;-78
2021/07/25 09:02:50;;;;;;;9.85;8.63;;;;;;;27.15;57.43;100505.13;1692614;82;28181;-78
2021/07/25 09:05:18;;;;;;;17.67;10.68;;;;;;;27.20;56.90;100499.52;1696487;82;25890;-78
2021/07/25 09:07:45;;;;;;;11.10;9.55;;;;;;;27.23;57.04;100499.48;1705824;82;25932;-77
2021/07/25 09:10:20;;;;;;;10.60;9.50;;;;;;;27.27;56.64;100501.34;1671798;81;26017;-78
2021/07/25 09:12:51;;;;;;;12.37;8.73;;;;;;;27.30;56.59;100501.31;1712191;80;26202;-78
2021/07/25 09:15:32;;;;;;;11.78;9.48;;;;;;;27.38;57.62;100498.73;1730401;80;28237;-78
2021/07/25 09:18:02;;;;;;;15.90;9.40;;;;;;;27.46;57.45;100496.66;1729139;81;25920;-78
2021/07/25 09:20:34;;;;;;;;;;;;;;;27.54;57.29;100501.23;1686750;82;25870;-78
2021/07/25 09:23:14;;;;;;;14.95;9.60;;;;;;;27.53;55.55;100501.78;1728269;80;26687;-78
2021/07/25 09:25:53;;;;;;;13.00;9.25;;;;;;;27.45;56.57;100496.97;1730729;82;25819;-78
2021/07/25 09:28:31;;;;;;;12.70;9.35;;;;;;;27.47;57.03;100501.05;1707977;82;27364;-78
2021/07/25 09:31:06;;;;;;;13.28;8.98;;;;;;;27.53;56.13;100501.78;1741812;80;25797;-78
2021/07/25 09:33:33;;;;;;;10.10;8.65;;;;;;;27.54;56.31;100503.42;1710923;82;25827;-78
2021/07/25 09:36:08;;;;;;;10.70;8.45;;;;;;;27.57;57.02;100503.36;1733603;81;26553;-78
2021/07/25 09:38:36;;;;;;;12.20;9.13;;;;;;;27.69;57.80;100507.30;1728733;81;25900;-78
2021/07/25 09:41:17;;;;;;;12.75;9.80;;;;;;;27.80;56.83;100503.21;1698131;81;28194;-78
2021/07/25 09:44:04;;;;;;;11.63;9.43;;;;;;;27.84;56.61;100504.82;1706984;82;25978;-78
2021/07/25 09:46:48;;;;;;;12.53;9.75;;;;;;;27.91;56.36;100503.30;1759437;80;26004;-78
2021/07/25 09:49:16;;;;;;;10.93;9.38;;;;;;;28.01;56.40;100509.22;1715454;80;25876;-79
2021/07/25 09:51:43;;;;;;;13.08;9.35;;;;;;;28.05;55.57;100510.23;1704322;80;26298;-79
2021/07/25 09:54:10;;;;;;;11.45;9.05;;;;;;;28.10;55.56;100511.53;1703349;81;27456;-79
2021/07/25 09:56:37;;;;;;;11.55;8.95;;;;;;;28.18;55.60;100508.88;1742428;81;25918;-78
2021/07/25 09:59:23;;;;;;;15.98;9.58;;;;;;;28.24;56.09;100503.52;1719219;81;26618;-79
2021/07/25 10:01:50;;;;;;;9.98;9.00;;;;;;;28.32;55.97;100508.05;1720618;81;25887;-78
2021/07/25 10:04:23;;;;;;;12.35;9.30;;;;;;;28.38;56.05;100499.95;1724387;81;25977;-78
2021/07/25 10:06:54;;;;;;;14.33;10.05;;;;;;;28.44;55.15;100500.92;1751655;80;28099;-78
2021/07/25 10:09:23;;;;;;;11.10;9.93;;;;;;;28.51;55.24;100498.55;1721368;81;26006;-79
2021/07/25 10:12:01;;;;;;;11.18;9.88;;;;;;;28.60;54.91;100500.05;1683860;81;26588;-78
2021/07/25 10:14:31;;;;;;;11.25;9.20;;;;;;;28.61;55.25;100502.52;1679416;82;26460;-79
2021/07/25 10:17:01;;;;;;;11.53;9.37;;;;;;;28.67;54.48;100494.39;1729643;81;25320;-79
2021/07/25 10:19:42;;;;;;;9.83;8.77;;;;;;;28.67;54.04;100492.19;1710319;81;28006;-78
2021/07/25 10:22:12;;;;;;;9.95;8.95;;;;;;;28.68;54.24;100489.67;1708603;81;25875;-78
2021/07/25 10:24:45;;;;;;;13.45;8.80;;;;;;;28.77;53.49;100490.58;1692370;81;25927;-78
2021/07/25 10:27:17;;;;;;;9.95;8.60;;;;;;;28.77;53.49;100490.58;1720939;81;26522;-78
2021/07/25 10:29:45;;;;;;;10.38;9.40;;;;;;;28.83;54.11;100483.27;1699419;81;26739;-78
2021/07/25 10:32:13;;;;;;;10.53;9.50;;;;;;;28.86;52.58;100486.80;1694804;81;27617;-78
2021/07/25 10:34:41;;;;;;;10.85;8.55;;;;;;;28.89;53.18;100486.73;1702079;80;25734;-78
2021/07/25 10:37:10;;;;;;;11.40;8.80;;;;;;;28.86;53.01;100478.52;1706531;82;25795;-78
2021/07/25 10:39:45;;;;;;;14.38;9.08;;;;;;;28.83;53.23;100477.75;1711383;82;25910;-79
2021/07/25 10:42:22;;;;;;;10.25;9.23;;;;;;;28.88;54.54;100479.58;1684066;82;25849;-79
2021/07/25 10:44:50;;;;;;;10.72;9.38;;;;;;;28.98;53.43;100480.16;1706308;81;28314;-78
2021/07/25 10:47:25;;;;;;;12.43;9.53;;;;;;;29.11;53.33;100479.03;1721223;81;25828;-78
2021/07/25 10:50:00;;;;;;;15.80;8.70;;;;;;;29.19;52.10;100477.75;1705542;82;26480;-78
2021/07/25 10:52:52;;;;;;;10.13;9.13;;;;;;;29.19;52.02;100476.38;1711724;80;25984;-79
2021/07/25 10:55:43;;;;;;;21.42;18.45;;;;;;;29.31;52.56;100486.86;1746202;80;43114;-78
2021/07/25 10:58:19;;;;;;;11.45;9.95;;;;;;;29.40;51.90;100481.67;1718450;81;27487;-78
2021/07/25 11:00:52;;;;;;;9.83;8.55;;;;;;;29.50;52.00;100480.58;1735170;81;25762;-78
2021/07/25 11:03:35;;;;;;;13.80;12.25;;;;;;;29.61;51.14;100486.09;1681599;81;25749;-78
2021/07/25 11:06:15;;;;;;;10.38;8.95;;;;;;;29.68;50.81;100489.23;1734631;81;26570;-78
2021/07/25 11:08:44;;;;;;;11.22;8.35;;;;;;;29.71;50.73;100482.50;1727770;80;27772;-78
2021/07/25 11:11:35;;;;;;;9.45;8.45;;;;;;;29.73;49.87;100478.03;1742630;81;27507;-78
2021/07/25 11:14:02;;;;;;;9.40;8.40;;;;;;;29.77;50.31;100479.06;1682428;81;25972;-78
2021/07/25 11:16:35;;;;;;;15.00;11.00;;;;;;;29.78;50.11;100486.78;1683687;82;25820;-78
2021/07/25 11:19:15;;;;;;;9.30;7.87;;;;;;;29.78;50.24;100485.41;1727005;82;25877;-78
2021/07/25 11:21:50;;;;;;;8.98;7.72;;;;;;;29.79;49.15;100474.63;1737278;81;25722;-78
2021/07/25 11:24:30;;;;;;;11.18;8.45;;;;;;;29.77;48.83;100476.89;1658185;82;28018;-79
2021/07/25 11:26:58;;;;;;;9.20;7.62;;;;;;;29.73;48.95;100475.27;1722816;81;25832;-79